createdAt,value
2022-12-31T00:02:56.835Z,95588.91
2022-12-31T00:06:00.353Z,95612.00
2022-12-31T00:09:05.247Z,95622.13
2022-12-31T00:12:09.148Z,95645.16
2022-12-31T00:15:12.014Z,95644.53
2022-12-31T00:18:14.027Z,95640.72
2022-12-31T00:21:18.129Z,95646.75
2022-12-31T00:24:20.464Z,95640.03
2022-12-31T00:27:26.903Z,95633.19
2022-12-31T00:30:28.738Z,95626.03
2022-12-31T00:33:31.065Z,95627.19
2022-12-31T00:36:34.674Z,95625.63
2022-12-31T00:39:38.179Z,95629.91
2022-12-31T00:42:42.164Z,95637.34
2022-12-31T00:45:44.029Z,95640.94
2022-12-31T00:48:47.032Z,95644.53
2022-12-31T00:51:49.061Z,95644.06
2022-12-31T00:54:53.952Z,95629.59
2022-12-31T00:57:57.198Z,95621.66
2022-12-31T01:00:59.561Z,95621.94
2022-12-31T01:04:04.933Z,95618.91
2022-12-31T01:07:08.272Z,95624.09
2022-12-31T01:10:10.795Z,95629.38
2022-12-31T01:13:14.311Z,95626.44
2022-12-31T01:16:19.713Z,95633.16
2022-12-31T01:19:24.085Z,95634.91
2022-12-31T01:22:31.102Z,95640.16
2022-12-31T01:25:35.100Z,95630.84
2022-12-31T01:28:49.921Z,95642.59
2022-12-31T01:31:51.879Z,95644.78
2022-12-31T01:34:56.308Z,95630.84
2022-12-31T01:37:58.103Z,95632.34
2022-12-31T01:41:03.402Z,95629.66
2022-12-31T01:44:38.437Z,95636.16
2022-12-31T01:47:45.450Z,95640.72
2022-12-31T01:50:48.582Z,95638.69
2022-12-31T01:53:51.714Z,95631.41
2022-12-31T01:56:55.304Z,95633.66
2022-12-31T02:00:00.602Z,95639.66
2022-12-31T02:03:07.255Z,95633.88
2022-12-31T02:06:14.891Z,95635.19
2022-12-31T02:09:18.105Z,95640.94
2022-12-31T02:12:24.087Z,95631.09
2022-12-31T02:15:33.828Z,95636.66
2022-12-31T02:18:48.842Z,95639.66
2022-12-31T02:22:01.229Z,95643.13
2022-12-31T02:25:30.528Z,95642.78
2022-12-31T02:28:53.824Z,95646.25
2022-12-31T02:32:00.998Z,95662.56
2022-12-31T02:35:10.256Z,95676.91
2022-12-31T02:38:15.955Z,95661.44
2022-12-31T02:41:20.338Z,95649.34
2022-12-31T02:44:24.137Z,95658.78
2022-12-31T02:47:43.683Z,95669.28
2022-12-31T02:50:58.670Z,95674.25
2022-12-31T02:54:17.429Z,95684.41
2022-12-31T02:57:34.212Z,95705.41
2022-12-31T03:00:44.033Z,95707.25
2022-12-31T03:03:47.353Z,95711.66
2022-12-31T03:06:51.806Z,95727.59
2022-12-31T03:09:54.977Z,95714.56
2022-12-31T03:12:57.102Z,95712.06
2022-12-31T03:16:02.049Z,95708.31
2022-12-31T03:19:05.506Z,95697.66
2022-12-31T03:22:12.706Z,95687.00
2022-12-31T03:25:17.123Z,95691.22
2022-12-31T03:28:21.937Z,95688.09
2022-12-31T03:31:26.110Z,95691.13
2022-12-31T03:34:29.380Z,95692.59
2022-12-31T03:37:31.716Z,95684.91
2022-12-31T03:40:38.401Z,95688.31
2022-12-31T03:43:42.224Z,95701.81
2022-12-31T03:46:44.010Z,95702.09
2022-12-31T03:49:47.237Z,95700.13
2022-12-31T03:52:50.484Z,95693.13
2022-12-31T03:55:52.848Z,95688.34
2022-12-31T03:58:56.096Z,95694.13
2022-12-31T04:01:58.087Z,95697.13
2022-12-31T04:05:06.598Z,95695.56
2022-12-31T04:08:08.609Z,95698.28
2022-12-31T04:11:14.678Z,95695.28
2022-12-31T04:14:20.803Z,95692.53
2022-12-31T04:17:22.947Z,95694.09
2022-12-31T04:20:26.244Z,95701.38
2022-12-31T04:23:29.393Z,95713.81
2022-12-31T04:26:33.459Z,95706.50
2022-12-31T04:29:35.975Z,95712.25
2022-12-31T04:32:37.835Z,95711.50
2022-12-31T04:35:43.028Z,95720.38
2022-12-31T04:38:45.071Z,95725.09
2022-12-31T04:41:49.356Z,95721.59
2022-12-31T04:44:51.887Z,95718.09
2022-12-31T04:47:53.851Z,95728.53
2022-12-31T04:50:57.769Z,95733.59
2022-12-31T04:54:00.225Z,95745.09
2022-12-31T04:57:02.147Z,95753.31
2022-12-31T05:00:05.068Z,95777.13
2022-12-31T05:03:07.004Z,95761.22
2022-12-31T05:06:17.230Z,95762.75
2022-12-31T05:09:19.154Z,95775.84
2022-12-31T05:12:21.062Z,95770.28
2022-12-31T05:15:24.623Z,95766.94
2022-12-31T05:18:26.851Z,95766.63
2022-12-31T05:21:30.088Z,95763.56
2022-12-31T05:24:33.071Z,95770.44
2022-12-31T05:27:35.239Z,95767.66
2022-12-31T05:30:39.445Z,95779.69
2022-12-31T05:33:41.326Z,95774.72
2022-12-31T05:36:47.504Z,95777.31
2022-12-31T05:39:49.354Z,95783.53
2022-12-31T05:42:51.180Z,95782.41
2022-12-31T05:45:57.095Z,95784.31
2022-12-31T05:48:58.972Z,95786.75
2022-12-31T05:52:02.997Z,95793.72
2022-12-31T05:55:08.789Z,95796.88
2022-12-31T05:58:10.661Z,95786.47
2022-12-31T06:01:13.075Z,95794.16
2022-12-31T06:04:15.171Z,95781.38
2022-12-31T06:07:18.575Z,95794.44
2022-12-31T06:10:22.417Z,95799.69
2022-12-31T06:13:24.350Z,95810.94
2022-12-31T06:16:27.770Z,95806.72
2022-12-31T06:19:29.688Z,95807.00
2022-12-31T06:22:32.940Z,95815.09
2022-12-31T06:25:37.538Z,95817.03
2022-12-31T06:28:39.487Z,95820.53
2022-12-31T06:31:42.949Z,95834.47
2022-12-31T06:34:44.987Z,95831.63
2022-12-31T06:37:54.811Z,95832.06
2022-12-31T06:40:56.853Z,95825.91
2022-12-31T06:44:02.175Z,95826.00
2022-12-31T06:47:04.248Z,95826.75
2022-12-31T06:50:07.355Z,95827.03
2022-12-31T06:53:15.494Z,95830.91
2022-12-31T06:56:20.173Z,95844.06
2022-12-31T06:59:25.824Z,95852.53
2022-12-31T07:02:48.458Z,95852.94
2022-12-31T07:05:54.318Z,95865.97
2022-12-31T07:09:09.058Z,95870.75
2022-12-31T07:12:20.470Z,95857.84
2022-12-31T07:15:50.234Z,95847.94
2022-12-31T07:18:58.559Z,95846.75
2022-12-31T07:22:03.129Z,95838.84
2022-12-31T07:25:13.726Z,95840.81
2022-12-31T07:28:25.264Z,95845.97
2022-12-31T07:31:39.885Z,95847.03
2022-12-31T07:34:51.217Z,95839.25
2022-12-31T07:38:02.705Z,95836.91
2022-12-31T07:41:17.216Z,95848.47
2022-12-31T07:44:34.670Z,95846.09
2022-12-31T07:47:37.260Z,95850.63
2022-12-31T07:50:39.684Z,95869.13
2022-12-31T07:53:43.086Z,95869.06
2022-12-31T07:56:47.472Z,95879.00
2022-12-31T08:00:03.866Z,95875.06
2022-12-31T08:03:18.888Z,95878.06
2022-12-31T08:06:35.175Z,95876.00
2022-12-31T08:09:46.874Z,95889.06
2022-12-31T08:12:53.258Z,95875.50
2022-12-31T08:15:58.255Z,95872.31
2022-12-31T08:19:00.985Z,95876.50
2022-12-31T08:22:14.917Z,95882.56
2022-12-31T08:25:25.893Z,95870.97
2022-12-31T08:28:56.968Z,95892.16
2022-12-31T08:32:12.138Z,95890.53
2022-12-31T08:35:27.264Z,95892.44
2022-12-31T08:38:35.171Z,95893.19
2022-12-31T08:41:43.052Z,95902.13
2022-12-31T08:44:54.618Z,95899.06
2022-12-31T08:48:04.259Z,95897.59
2022-12-31T08:51:14.341Z,95907.56
2022-12-31T08:54:16.956Z,95906.84
2022-12-31T08:57:28.297Z,95911.16
2022-12-31T09:00:32.547Z,95911.91
2022-12-31T09:03:53.322Z,95905.31
2022-12-31T09:06:59.696Z,95910.47
2022-12-31T09:10:12.091Z,95905.88
2022-12-31T09:13:25.136Z,95914.03
2022-12-31T09:16:29.193Z,95912.19
2022-12-31T09:19:32.449Z,95910.25
2022-12-31T09:22:36.211Z,95908.75
2022-12-31T09:25:44.130Z,95911.84
2022-12-31T09:28:54.792Z,95918.06
2022-12-31T09:32:05.952Z,95928.91
2022-12-31T09:35:16.882Z,95930.44
2022-12-31T09:38:22.781Z,95914.63
2022-12-31T09:42:14.910Z,95912.75
2022-12-31T09:45:52.329Z,95916.69
2022-12-31T09:49:28.181Z,95908.97
2022-12-31T09:52:47.649Z,95913.56
2022-12-31T09:55:57.668Z,95918.28
2022-12-31T09:59:05.603Z,95912.22
2022-12-31T10:02:22.922Z,95916.09
2022-12-31T10:05:50.486Z,95913.00
2022-12-31T10:09:10.458Z,95907.19
2022-12-31T10:12:22.677Z,95903.31
2022-12-31T10:15:38.885Z,95900.63
2022-12-31T10:18:58.356Z,95895.19
2022-12-31T10:22:15.053Z,95896.00
2022-12-31T10:25:38.915Z,95902.56
2022-12-31T10:28:56.526Z,95894.09
2022-12-31T10:32:17.489Z,95891.13
2022-12-31T10:35:35.669Z,95885.34
2022-12-31T10:38:47.213Z,95882.66
2022-12-31T10:42:25.190Z,95880.78
2022-12-31T10:46:01.960Z,95883.94
2022-12-31T10:49:30.697Z,95871.28
2022-12-31T10:53:19.776Z,95863.63
2022-12-31T10:56:56.224Z,95868.34
2022-12-31T11:00:18.528Z,95860.69
2022-12-31T11:03:55.611Z,95864.22
2022-12-31T11:07:27.489Z,95870.00
2022-12-31T11:11:03.528Z,95872.72
2022-12-31T11:14:33.917Z,95864.69
2022-12-31T11:17:45.148Z,95863.19
2022-12-31T11:21:28.498Z,95859.78
2022-12-31T11:24:41.862Z,95854.41
2022-12-31T11:27:56.882Z,95854.44
2022-12-31T11:31:12.355Z,95847.53
2022-12-31T11:34:49.275Z,95843.72
2022-12-31T11:37:54.644Z,95846.81
2022-12-31T11:41:05.433Z,95844.50
2022-12-31T11:44:20.697Z,95834.44
2022-12-31T11:48:29.232Z,95839.88
2022-12-31T11:52:00.693Z,95841.88
2022-12-31T11:55:26.743Z,95836.06
2022-12-31T11:58:29.926Z,95841.47
2022-12-31T12:01:36.472Z,95834.53
2022-12-31T12:04:38.411Z,95825.63
2022-12-31T12:07:44.305Z,95834.53
2022-12-31T12:10:48.728Z,95830.69
2022-12-31T12:13:50.636Z,95831.06
2022-12-31T12:17:02.432Z,95822.19
2022-12-31T12:20:15.630Z,95826.03
2022-12-31T12:23:24.596Z,95822.94
2022-12-31T12:26:34.162Z,95824.50
2022-12-31T12:29:36.274Z,95824.50
2022-12-31T12:32:39.136Z,95825.25
2022-12-31T12:35:41.071Z,95825.25
2022-12-31T12:38:46.437Z,95826.81
2022-12-31T12:41:59.969Z,95819.88
2022-12-31T12:45:05.010Z,95816.38
2022-12-31T12:48:17.622Z,95819.47
2022-12-31T12:51:33.321Z,95809.41
2022-12-31T12:54:55.061Z,95810.19
2022-12-31T12:58:06.679Z,95807.06
2022-12-31T13:01:21.748Z,95808.22
2022-12-31T13:04:38.533Z,95793.47
2022-12-31T13:07:56.670Z,95798.84
2022-12-31T13:11:12.048Z,95798.84
2022-12-31T13:14:25.827Z,95797.69
2022-12-31T13:17:46.050Z,95797.28
2022-12-31T13:20:59.396Z,95788.38
2022-12-31T13:24:07.713Z,95790.31
2022-12-31T13:27:15.062Z,95792.28
2022-12-31T13:30:21.926Z,95789.16
2022-12-31T13:33:29.480Z,95795.38
2022-12-31T13:36:38.471Z,95790.38
2022-12-31T13:39:44.156Z,95797.38
2022-12-31T13:42:53.788Z,95795.81
2022-12-31T13:46:08.251Z,95791.94
2022-12-31T13:49:17.434Z,95794.28
2022-12-31T13:52:28.758Z,95795.03
2022-12-31T13:55:33.798Z,95796.63
2022-12-31T13:58:43.524Z,95796.63
2022-12-31T14:01:53.054Z,95798.16
2022-12-31T14:05:00.533Z,95800.88
2022-12-31T14:08:05.263Z,95803.19
2022-12-31T14:11:18.665Z,95804.75
2022-12-31T14:14:31.236Z,95807.06
2022-12-31T14:17:42.581Z,95815.59
2022-12-31T14:20:49.001Z,95819.88
2022-12-31T14:23:59.636Z,95815.22
2022-12-31T14:27:05.537Z,95822.19
2022-12-31T14:30:16.063Z,95818.31
2022-12-31T14:33:32.287Z,95819.47
2022-12-31T14:36:46.299Z,95837.28
2022-12-31T14:39:54.970Z,95838.06
2022-12-31T14:43:10.241Z,95837.69
2022-12-31T14:46:26.035Z,95849.69
2022-12-31T14:49:38.660Z,95845.41
2022-12-31T14:52:52.110Z,95839.59
2022-12-31T14:56:01.559Z,95843.88
2022-12-31T14:59:03.528Z,95843.44
2022-12-31T15:02:30.120Z,95845.75
2022-12-31T15:05:34.599Z,95838.38
2022-12-31T15:08:47.322Z,95833.75
2022-12-31T15:12:14.429Z,95836.06
2022-12-31T15:15:55.607Z,95844.13
2022-12-31T15:19:29.748Z,95843.66
2022-12-31T15:22:39.846Z,95839.31
2022-12-31T15:25:47.849Z,95840.34
2022-12-31T15:28:58.563Z,95843.41
2022-12-31T15:32:04.084Z,95844.78
2022-12-31T15:38:36.527Z,95846.09
2022-12-31T15:42:03.122Z,95857.66
2022-12-31T15:45:08.049Z,95851.31
2022-12-31T15:48:16.727Z,95850.84
2022-12-31T15:51:22.592Z,95854.72
2022-12-31T15:54:34.779Z,95859.81
2022-12-31T15:57:40.214Z,95866.00
2022-12-31T16:01:01.462Z,95859.09
2022-12-31T16:04:05.807Z,95859.44
2022-12-31T16:07:09.561Z,95856.84
2022-12-31T16:10:19.097Z,95861.69
2022-12-31T16:13:24.219Z,95858.63
2022-12-31T16:16:27.836Z,95858.81
2022-12-31T16:19:35.690Z,95857.47
2022-12-31T16:22:39.745Z,95858.69
2022-12-31T16:25:45.347Z,95854.44
2022-12-31T16:28:48.283Z,95867.56
2022-12-31T16:31:52.282Z,95862.91
2022-12-31T16:34:54.129Z,95872.25
2022-12-31T16:38:13.969Z,95863.91
2022-12-31T16:41:17.866Z,95875.91
2022-12-31T16:44:27.635Z,95874.31
2022-12-31T16:47:34.095Z,95870.38
2022-12-31T16:50:36.561Z,95865.13
2022-12-31T16:53:40.661Z,95875.31
2022-12-31T16:56:44.424Z,95864.16
2022-12-31T16:59:49.389Z,95865.94
2022-12-31T17:03:01.135Z,95871.34
2022-12-31T17:06:14.076Z,95876.41
2022-12-31T17:09:17.687Z,95878.81
2022-12-31T17:12:20.968Z,95878.69
2022-12-31T17:15:25.703Z,95877.25
2022-12-31T17:18:35.613Z,95877.22
2022-12-31T17:21:37.469Z,95878.09
2022-12-31T17:24:39.874Z,95879.22
2022-12-31T17:27:52.862Z,95882.09
2022-12-31T17:31:00.009Z,95876.28
2022-12-31T17:34:20.179Z,95880.78
2022-12-31T17:37:27.175Z,95887.38
2022-12-31T17:40:50.823Z,95886.47
2022-12-31T17:43:57.825Z,95884.53
2022-12-31T17:46:59.685Z,95878.81
2022-12-31T17:50:08.804Z,95876.50
2022-12-31T17:53:12.736Z,95876.06
2022-12-31T17:56:15.449Z,95874.94
2022-12-31T17:59:21.820Z,95870.63
2022-12-31T18:02:23.734Z,95884.03
2022-12-31T18:05:26.046Z,95886.00
2022-12-31T18:08:27.922Z,95883.81
2022-12-31T18:11:29.853Z,95882.34
2022-12-31T18:14:33.584Z,95873.91
2022-12-31T18:17:35.472Z,95881.81
2022-12-31T18:20:37.368Z,95879.53
2022-12-31T18:23:42.248Z,95882.81
2022-12-31T18:26:44.083Z,95878.16
2022-12-31T18:29:47.291Z,95885.84
2022-12-31T18:32:49.163Z,95884.41
2022-12-31T18:36:09.613Z,95877.84
2022-12-31T18:39:12.243Z,95882.16
2022-12-31T18:42:16.135Z,95876.59
2022-12-31T18:45:21.098Z,95879.53
2022-12-31T18:48:23.161Z,95879.75
2022-12-31T18:51:31.320Z,95888.09
2022-12-31T18:54:33.739Z,95892.00
2022-12-31T18:57:35.552Z,95887.97
2022-12-31T19:00:38.766Z,95881.16
2022-12-31T19:03:40.551Z,95876.44
2022-12-31T19:06:42.679Z,95873.75
2022-12-31T19:09:45.977Z,95867.31
2022-12-31T19:12:48.810Z,95866.09
2022-12-31T19:15:53.296Z,95867.59
2022-12-31T19:18:55.166Z,95869.78
2022-12-31T19:21:56.977Z,95876.56
2022-12-31T19:24:58.803Z,95875.84
2022-12-31T19:28:00.999Z,95865.00
2022-12-31T19:31:04.275Z,95872.56
2022-12-31T19:34:06.097Z,95873.88
2022-12-31T19:37:11.974Z,95874.38
2022-12-31T19:40:16.488Z,95884.38
2022-12-31T19:43:20.635Z,95885.38
2022-12-31T19:46:23.846Z,95882.31
2022-12-31T19:49:25.764Z,95885.50
2022-12-31T19:52:27.571Z,95882.81
2022-12-31T19:55:29.400Z,95887.09
2022-12-31T19:58:31.356Z,95878.44
2022-12-31T20:01:34.891Z,95886.72
2022-12-31T20:04:36.783Z,95881.34
2022-12-31T20:07:38.638Z,95879.63
2022-12-31T20:10:40.879Z,95876.53
2022-12-31T20:13:43.425Z,95896.25
2022-12-31T20:16:46.687Z,95883.88
2022-12-31T20:19:48.625Z,95880.38
2022-12-31T20:22:50.460Z,95880.47
2022-12-31T20:25:58.177Z,95884.56
2022-12-31T20:28:59.984Z,95881.13
2022-12-31T20:32:03.560Z,95881.72
2022-12-31T20:35:06.424Z,95881.28
2022-12-31T20:38:08.235Z,95874.28
2022-12-31T20:41:11.644Z,95873.75
2022-12-31T20:44:13.578Z,95877.09
2022-12-31T20:47:16.737Z,95875.91
2022-12-31T20:50:18.834Z,95871.75
2022-12-31T20:53:20.588Z,95866.72
2022-12-31T20:56:23.326Z,95858.91
2022-12-31T20:59:25.137Z,95856.34
2022-12-31T21:02:40.798Z,95852.72
2022-12-31T21:05:47.612Z,95854.88
2022-12-31T21:08:49.651Z,95855.75
2022-12-31T21:11:51.483Z,95853.91
2022-12-31T21:14:53.271Z,95861.97
2022-12-31T21:17:56.498Z,95844.81
2022-12-31T21:20:58.316Z,95847.88
2022-12-31T21:24:00.165Z,95849.59
2022-12-31T21:27:02.003Z,95846.22
2022-12-31T21:30:20.152Z,95856.97
2022-12-31T21:33:23.898Z,95852.72
2022-12-31T21:36:25.779Z,95851.16
2022-12-31T21:39:27.561Z,95857.47
2022-12-31T21:42:29.363Z,95856.69
2022-12-31T21:45:31.253Z,95857.91
2022-12-31T21:48:34.444Z,95861.00
2022-12-31T21:51:36.279Z,95855.75
2022-12-31T21:54:38.068Z,95862.31
2022-12-31T21:58:15.163Z,95858.84
2022-12-31T22:01:03.596Z,95861.03
2022-12-31T22:04:12.924Z,95863.38
2022-12-31T22:07:24.134Z,95882.84
2022-12-31T22:10:25.983Z,95879.03
2022-12-31T22:13:27.871Z,95885.28
2022-12-31T22:16:29.671Z,95892.84
2022-12-31T22:19:39.270Z,95893.00
2022-12-31T22:22:54.739Z,95885.09
2022-12-31T22:25:56.721Z,95880.84
2022-12-31T22:28:58.543Z,95883.13
2022-12-31T22:32:01.361Z,95884.31
2022-12-31T22:35:05.560Z,95886.03
2022-12-31T22:38:11.882Z,95890.16
2022-12-31T22:41:15.414Z,95888.75
2022-12-31T22:44:17.235Z,95882.81
2022-12-31T22:47:19.069Z,95899.06
2022-12-31T22:50:22.256Z,95911.66
2022-12-31T22:53:24.150Z,95902.25
2022-12-31T22:56:25.947Z,95913.75
2022-12-31T22:59:27.767Z,95919.41
2022-12-31T23:02:30.550Z,95920.13
2022-12-31T23:05:34.393Z,95930.66
2022-12-31T23:08:36.755Z,95928.69
2022-12-31T23:11:39.355Z,95928.75
2022-12-31T23:14:41.188Z,95942.56
2022-12-31T23:17:42.987Z,95928.38
2022-12-31T23:20:46.243Z,95920.53
2022-12-31T23:23:52.843Z,95926.34
2022-12-31T23:26:55.958Z,95922.53
2022-12-31T23:29:57.767Z,95920.25
2022-12-31T23:32:59.904Z,95931.03
2022-12-31T23:36:04.283Z,95924.78
2022-12-31T23:39:06.113Z,95930.16
2022-12-31T23:42:08.177Z,95938.53
2022-12-31T23:45:10.658Z,95932.22
2022-12-31T23:48:12.425Z,95933.50
2022-12-31T23:51:15.624Z,95930.81
2022-12-31T23:54:17.521Z,95943.75
2022-12-31T23:57:19.341Z,95938.72
